Home > Products > Valid Products > TAF

000
FTUS44 KSHV 251735
TAFTXK
TAF
KTXK 251735Z 2518/2618 23015G25KT P6SM SKC
     FM260000 21005KT P6SM SKC
     FM261500 10005KT P6SM SKC=



000
FTUS44 KSHV 251735
TAFELD
TAF
KELD 251735Z 2518/2618 23010KT P6SM BKN250
     FM260000 21005KT P6SM SKC
     FM261500 VRB05KT P6SM SCT250=



000
FTUS44 KSHV 251735
TAFLFK
TAF
KLFK 251735Z 2518/2618 23009G17KT P6SM SKC
     FM260000 19002KT P6SM SKC
     FM260900 17002KT 5SM BR OVC009
     FM261600 20005KT P6SM SCT030=



000
FTUS44 KSHV 251735
TAFGGG
TAF
KGGG 251735Z 2518/2618 23010G18KT P6SM SKC
     FM260000 21006KT P6SM SKC
     FM261500 20008KT P6SM SCT025=



000
FTUS44 KSHV 251735
TAFMLU
TAF
KMLU 251735Z 2518/2618 23015G25KT P6SM SCT020 OVC250
     FM260000 21005KT P6SM SKC
     FM261500 VRB05KT P6SM SCT025=



000
FTUS44 KSHV 251735
TAFSHV
TAF
KSHV 251735Z 2518/2618 23010G20KT P6SM BKN250
     FM260000 22003KT P6SM SKC
     FM261500 23004KT P6SM SCT025=



000
FTUS44 KSHV 251735
TAFTYR
TAF
KTYR 251735Z 2518/2618 23015G25KT P6SM SKC
     FM260000 21006KT P6SM SKC
     FM261500 20008KT P6SM SCT025=



000
FTUS44 KSHV 251543 AAB
TAFMLU
TAF AMD
KMLU 251543Z 2516/2612 20010KT 3SM BR OVC015
     FM251800 23015G25KT P6SM SCT040
     FM260000 21005KT P6SM SKC=



000
FTUS44 KSHV 251543 AAB
TAFLFK
TAF AMD
KLFK 251543Z 2516/2612 22008KT 5SM BR SCT015 OVC100
     FM251800 23009G17KT P6SM SCT035
     FM260000 21006KT P6SM SKC=



000
FTUS44 KSHV 251525 AAC
TAFTXK
TAF AMD
KTXK 251525Z 2515/2612 21009KT 3SM BR SCT008
     FM251600 23015G25KT P6SM SCT025
     FM260000 21005KT P6SM SCT250=



000
FTUS44 KSHV 251502 AAA
TAFGGG
TAF AMD
KGGG 251502Z 2515/2612 22010KT P6SM SCT010 OVC100
      TEMPO 2515/2516 5SM BR BKN015
     FM251600 23015G25KT P6SM SCT025
     FM260000 21005KT P6SM SCT250=



000
FTUS44 KSHV 251501 AAB
TAFSHV
TAF AMD
KSHV 251501Z 2515/2612 25010KT P6SM SCT025 OVC100
      TEMPO 2515/2516 BKN025
     FM251600 23013G20KT P6SM SCT030
     FM251800 23015G25KT P6SM SCT045
     FM260000 22004KT P6SM SCT250=



000
FTUS44 KSHV 251501 AAB
TAFSHV
TAF AMD
KSHV 251501Z 2515/2612 25010KT P6SM SCT025 OVC100
      TEMPO 2515/2516 BKN025
     FM251600 23013G20KT P6SM SCT030
     FM251800 23015G25KT P6SM SCT045
     FM260000 22004KT P6SM SCT250=



000
FTUS44 KSHV 251501 AAA
TAFMLU
TAF AMD
KMLU 251501Z 2515/2612 20010KT 3SM BR OVC007
     FM251800 23015G25KT P6SM SCT040
     FM260000 21005KT P6SM SKC=



000
FTUS44 KSHV 251443 AAC
TAFSHV
TAF AMD
KSHV 251443Z 2515/2612 25010KT 5SM BR OVC025
     FM251600 23013G20KT P6SM SCT030
     FM251800 23015G25KT P6SM SCT045
     FM260000 22004KT P6SM SCT250=



000
FTUS44 KSHV 251424 AAB
TAFTXK
TAF AMD
KTXK 251424Z 2514/2612 21009KT 3SM BR BKN006
      TEMPO 2514/2515 BKN015
     FM251600 23015G25KT P6SM SCT025
     FM260000 21005KT P6SM SCT250=



000
FTUS44 KSHV 251417 AAA
TAFTYR
TAF AMD
KTYR 251417Z 2514/2612 22007KT P6SM FEW010
      TEMPO 2514/2515 BKN015
     FM251600 22015G25KT P6SM SKC
     FM260000 21006KT P6SM SCT250=



000
FTUS44 KSHV 251414 AAB
TAFELD
TAF AMD
KELD 251414Z 2514/2612 19006KT 3SM BR OVC010
      TEMPO 2514/2515 1SM BR BKN003
     FM251700 23012G20KT P6SM SCT035
     FM260000 21005KT P6SM SCT250=



000
FTUS44 KSHV 251249 AAA
TAFLFK
TAF AMD
KLFK 251249Z 2513/2612 22003KT 4SM -RA BR VCSH FEW006 SCT100 OVC120
      TEMPO 2513/2515 6SM -TSRA BR BKN006CB
     FM251500 22008KT P6SM BKN025
     FM251800 23009G17KT P6SM SCT035
     FM260000 21006KT P6SM SKC=



000
FTUS44 KSHV 251249 AAA
TAFLFK
TAF AMD
KLFK 251249Z 2513/2612 22003KT 4SM -RA BR VCSH FEW006 SCT100 OVC120
      TEMPO 2513/2515 6SM -TSRA BR BKN006CB
     FM251500 22008KT P6SM BKN025
     FM251800 23009G17KT P6SM SCT035
     FM260000 21006KT P6SM SKC=



000
FTUS44 KSHV 251247 AAA
TAFELD
TAF AMD
KELD 251247Z 2513/2612 19006KT 1 1/2SM BR OVC003
      TEMPO 2513/2515 1/4SM FG VV002
     FM251500 23006KT 6SM BR BKN020
     FM251700 23012G20KT P6SM SCT035
     FM260000 21005KT P6SM SCT250=



000
FTUS44 KSHV 251247 AAA
TAFELD
TAF AMD
KELD 251247Z 2513/2612 19006KT 1 1/2SM BR OVC003
      TEMPO 2513/2515 1/4SM FG VV002
     FM251500 23006KT 6SM BR BKN020
     FM251700 23012G20KT P6SM SCT035
     FM260000 21005KT P6SM SCT250=



000
FTUS44 KSHV 251240 AAA
TAFTXK
TAF AMD
KTXK 251240Z 2513/2612 21009KT 1/4SM FG VV002
      TEMPO 2513/2515 4SM BR BKN015
     FM251500 23015G25KT P6SM SCT025
     FM260000 21005KT P6SM SCT250=



000
FTUS44 KSHV 251146 CCA
TAFLFK
TAF COR
KLFK 251146Z 2512/2612 00000KT 1SM BR VCSH VV014
      TEMPO 2512/2515 6SM -TSRA BR BKN015CB
     FM251500 22008KT P6SM BKN025
     FM251800 23009G17KT P6SM SCT035
     FM260000 21006KT P6SM SKC=



000
FTUS44 KSHV 251141
TAFTYR
TAF
KTYR 251141Z 2512/2612 22007KT 5SM BR OVC002
      TEMPO 2512/2515 6SM BR BKN015
     FM251500 23015G25KT P6SM SCT030
     FM260000 21006KT P6SM SCT250=



000
FTUS44 KSHV 251141
TAFGGG
TAF
KGGG 251141Z 2512/2612 20010KT 6SM BR OVC005
      TEMPO 2512/2515 6SM BR BKN015
     FM251500 23015G25KT P6SM SCT025
     FM260000 21005KT P6SM SCT250=



000
FTUS44 KSHV 251141
TAFELD
TAF
KELD 251141Z 2512/2612 17005KT P6SM BKN009 OVC015
     FM251500 23015G25KT P6SM SCT030
     FM260000 21005KT P6SM SKC=



000
FTUS44 KSHV 251141
TAFMLU
TAF
KMLU 251141Z 2512/2612 17005KT P6SM BKN005 BKN025
      TEMPO 2512/2515 6SM BR SCT010 BKN025
     FM251500 20010KT P6SM SCT030
     FM251800 23015G25KT P6SM SCT040
     FM260000 21005KT P6SM SKC=



000
FTUS44 KSHV 251141
TAFTXK
TAF
KTXK 251141Z 2512/2612 18004KT P6SM OVC011
     FM251500 23015G25KT P6SM SCT025
     FM260000 21005KT P6SM SCT250=



000
FTUS44 KSHV 251141
TAFSHV
TAF
KSHV 251141Z 2512/2612 22008KT 5SM BCFG VCSH OVC007
      TEMPO 2512/2515 6SM -SHRA BR BKN015
     FM251500 23013G20KT P6SM SCT030
     FM251800 23015G25KT P6SM SCT045
     FM260000 22004KT P6SM SCT250=



000
FTUS44 KSHV 251141
TAFLFK
TAF
KLFK 251141Z 2512/2612 00000KT 1SM BR VCSH VV014
      TEMPO 2512/2515 6SM -SHRA BR BKN015
     FM251500 22010G15KT P6SM SCT030
     FM260000 21006KT P6SM SKC=



000
FTUS44 KSHV 251141
TAFMLU
TAF
KMLU 251141Z 2512/2612 17005KT P6SM BKN005 BKN025
      TEMPO 2512/2515 6SM BR SCT010 BKN025
     FM251500 20010KT P6SM SCT030
     FM251800 23015G25KT P6SM SCT040
     FM260000 21005KT P6SM SKC=



000
FTUS44 KSHV 251141
TAFELD
TAF
KELD 251141Z 2512/2612 17005KT P6SM BKN009 OVC015
     FM251500 23015G25KT P6SM SCT030
     FM260000 21005KT P6SM SKC=



000
FTUS44 KSHV 251141
TAFTXK
TAF
KTXK 251141Z 2512/2612 18004KT P6SM OVC011
     FM251500 23015G25KT P6SM SCT025
     FM260000 21005KT P6SM SCT250=



000
FTUS44 KSHV 251141
TAFGGG
TAF
KGGG 251141Z 2512/2612 20010KT 6SM BR OVC005
      TEMPO 2512/2515 6SM BR BKN015
     FM251500 23015G25KT P6SM SCT025
     FM260000 21005KT P6SM SCT250=



000
FTUS44 KSHV 251141
TAFTYR
TAF
KTYR 251141Z 2512/2612 22007KT 5SM BR OVC002
      TEMPO 2512/2515 6SM BR BKN015
     FM251500 23015G25KT P6SM SCT030
     FM260000 21006KT P6SM SCT250=



000
FTUS44 KSHV 251141
TAFSHV
TAF
KSHV 251141Z 2512/2612 22008KT 5SM BCFG VCSH OVC007
      TEMPO 2512/2515 6SM -SHRA BR BKN015
     FM251500 23013G20KT P6SM SCT030
     FM251800 23015G25KT P6SM SCT045
     FM260000 22004KT P6SM SCT250=



000
FTUS44 KSHV 251141
TAFLFK
TAF
KLFK 251141Z 2512/2612 00000KT 1SM BR VCSH VV014
      TEMPO 2512/2515 6SM -SHRA BR BKN015
     FM251500 22010G15KT P6SM SCT030
     FM260000 21006KT P6SM SKC=



000
FTUS44 KSHV 250924 AAA
TAFTYR
TAF AMD
KTYR 250924Z 2509/2606 19007KT P6SM BKN008
     FM251200 20010G15KT 5SM BR FEW010 SCT250
     FM251500 23015G25KT P6SM SKC
     FM260000 21006KT P6SM SKC=



000
FTUS44 KSHV 250922 CCA
TAFTXK
TAF COR
KTXK 250922Z 2509/2606 20007KT 6SM BR OVC002
      TEMPO 2509/2512 2SM BR FEW003
     FM251500 23015G25KT P6SM SKC
     FM260000 21005KT P6SM SKC=



000
FTUS44 KSHV 250911 AAB
TAFTXK
TAF AMD
KTXK 250911Z 2509/2606 20007KT 6SM BR OVC002
      TEMPO 2509/2512 2SM BR
     FM251500 23015G25KT P6SM SKC
     FM260000 21005KT P6SM SKC=



000
FTUS44 KSHV 250910 AAB
TAFELD
TAF AMD
KELD 250910Z 2509/2606 18007KT P6SM FEW004
      TEMPO 2509/2512 4SM BR BKN005 OVC020
     FM251200 19008KT P6SM BKN020 OVC040
     FM251500 23015G25KT P6SM SCT030
     FM260000 21005KT P6SM SKC=



000
FTUS44 KSHV 250908 AAA
TAFLFK
TAF AMD
KLFK 250908Z 2509/2606 16007KT 4SM HZ VCSH BKN009 OVC012
     FM251200 18005KT 2SM -SHRA BR SCT009 BKN012
     FM251500 22010G15KT P6SM SCT030
     FM260000 21006KT P6SM SKC=



000
FTUS44 KSHV 250906 AAA
TAFGGG
TAF AMD
KGGG 250906Z 2509/2606 19009KT P6SM VCSH SCT040
      TEMPO 2509/2512 5SM -SHRA BKN040
     FM251200 20010G15KT 5SM BR SCT250
     FM251500 23015G25KT P6SM SKC
     FM260000 21005KT P6SM SKC=



000
FTUS44 KSHV 250743 AAA
TAFELD
TAF AMD
KELD 250743Z 2508/2606 16006KT P6SM BKN004
      TEMPO 2508/2512 4SM BR SCT005 BKN015
     FM251200 19008KT P6SM BKN020 OVC040
     FM251500 23015G25KT P6SM SCT030
     FM260000 21005KT P6SM SKC=



000
FTUS44 KSHV 250742 AAB
TAFSHV
TAF AMD
KSHV 250742Z 2508/2606 VRB04KT P6SM SCT130 OVC260
      TEMPO 2509/2513 5SM BR BKN015
     FM251500 23013G20KT P6SM SCT030
     FM251800 23015G25KT P6SM SKC
     FM260000 22004KT P6SM SKC=



000
FTUS44 KSHV 250741 AAA
TAFMLU
TAF AMD
KMLU 250741Z 2508/2606 VRB05KT P6SM SCT003 BKN100
      TEMPO 2508/2512 2SM BR BKN003
     FM251200 19010G15KT P6SM BKN020 OVC040
     FM251800 23015G25KT P6SM SCT030
     FM260000 21005KT P6SM SKC=



000
FTUS44 KSHV 250608 AAA
TAFTXK
TAF AMD
KTXK 250608Z 2506/2606 19008KT P6SM SCT004 BKN100 OVC250
      TEMPO 2506/2509 BKN004
     FM250900 20010G15KT P6SM BKN020 OVC040
     FM251500 23015G25KT P6SM SKC
     FM260000 21005KT P6SM SKC=



000
FTUS44 KSHV 250553
TAFGGG
TAF
KGGG 250553Z 2506/2606 18010KT P6SM SCT035 BKN100 OVC250
     FM251200 20010G15KT 5SM BR SCT250
     FM251500 23015G25KT P6SM SKC
     FM260000 21005KT P6SM SKC=



000
FTUS44 KSHV 250553
TAFMLU
TAF
KMLU 250553Z 2506/2606 20009KT 6SM -TSRA BR SCT015CB BKN030 OVC070
      TEMPO 2506/2509 VRB10G20KT 2SM +TSRA BR OVC010CB
     FM251200 19010G15KT P6SM BKN020 OVC040
     FM251800 23015G25KT P6SM SCT030
     FM260000 21005KT P6SM SKC=



000
FTUS44 KSHV 250553
TAFLFK
TAF
KLFK 250553Z 2506/2606 VRB03KT 6SM BR VCSH BKN025
      TEMPO 2506/2509 4SM BR BKN015
     FM251200 18005KT 2SM BR BKN015
     FM251500 22010G15KT P6SM SCT030
     FM260000 21006KT P6SM SKC=



000
FTUS44 KSHV 250553
TAFELD
TAF
KELD 250553Z 2506/2606 18007KT 6SM -SHRA VCTS BKN035CB BKN100
      OVC250
      TEMPO 2506/2509 4SM -TSRA BR BKN025CB
     FM250900 19008KT P6SM BKN020 OVC040
     FM251500 23015G25KT P6SM SCT030
     FM260000 21005KT P6SM SKC=



000
FTUS44 KSHV 250553
TAFSHV
TAF
KSHV 250553Z 2506/2606 20009KT 6SM -SHRA VCTS BKN035CB BKN050
      OVC070
     FM250700 21010KT P6SM BKN020 OVC030
     FM251500 23013G20KT P6SM SCT030
     FM251800 23015G25KT P6SM SKC
     FM260000 22004KT P6SM SKC=



000
FTUS44 KSHV 250553
TAFTYR
TAF
KTYR 250553Z 2506/2606 19008KT P6SM SCT035 BKN100 OVC250
     FM251200 20010G15KT 5SM BR SCT250
     FM251500 23015G25KT P6SM SKC
     FM260000 21006KT P6SM SKC=



000
FTUS44 KSHV 250553
TAFTXK
TAF
KTXK 250553Z 2506/2606 19008KT P6SM -RA FEW010 SCT120 OVC250
     FM250700 20010G15KT P6SM BKN020 OVC040
     FM251500 23015G25KT P6SM SKC
     FM260000 21005KT P6SM SKC=



000
FTUS44 KSHV 250553
TAFLFK
TAF
KLFK 250553Z 2506/2606 VRB03KT 6SM BR VCSH BKN025
      TEMPO 2506/2509 4SM BR BKN015
     FM251200 18005KT 2SM BR BKN015
     FM251500 22010G15KT P6SM SCT030
     FM260000 21006KT P6SM SKC=



000
FTUS44 KSHV 250553
TAFGGG
TAF
KGGG 250553Z 2506/2606 18010KT P6SM SCT035 BKN100 OVC250
     FM251200 20010G15KT 5SM BR SCT250
     FM251500 23015G25KT P6SM SKC
     FM260000 21005KT P6SM SKC=



000
FTUS44 KSHV 250553
TAFMLU
TAF
KMLU 250553Z 2506/2606 20009KT 6SM -TSRA BR SCT015CB BKN030 OVC070
      TEMPO 2506/2509 VRB10G20KT 2SM +TSRA BR OVC010CB
     FM251200 19010G15KT P6SM BKN020 OVC040
     FM251800 23015G25KT P6SM SCT030
     FM260000 21005KT P6SM SKC=



000
FTUS44 KSHV 250553
TAFTXK
TAF
KTXK 250553Z 2506/2606 19008KT P6SM -RA FEW010 SCT120 OVC250
     FM250700 20010G15KT P6SM BKN020 OVC040
     FM251500 23015G25KT P6SM SKC
     FM260000 21005KT P6SM SKC=



000
FTUS44 KSHV 250553
TAFTYR
TAF
KTYR 250553Z 2506/2606 19008KT P6SM SCT035 BKN100 OVC250
     FM251200 20010G15KT 5SM BR SCT250
     FM251500 23015G25KT P6SM SKC
     FM260000 21006KT P6SM SKC=



000
FTUS44 KSHV 250553
TAFSHV
TAF
KSHV 250553Z 2506/2606 20009KT 6SM -SHRA VCTS BKN035CB BKN050
      OVC070
     FM250700 21010KT P6SM BKN020 OVC030
     FM251500 23013G20KT P6SM SCT030
     FM251800 23015G25KT P6SM SKC
     FM260000 22004KT P6SM SKC=



000
FTUS44 KSHV 250553
TAFELD
TAF
KELD 250553Z 2506/2606 18007KT 6SM -SHRA VCTS BKN035CB BKN100
      OVC250
      TEMPO 2506/2509 4SM -TSRA BR BKN025CB
     FM250900 19008KT P6SM BKN020 OVC040
     FM251500 23015G25KT P6SM SCT030
     FM260000 21005KT P6SM SKC=



000
FTUS44 KSHV 250020 AAA
TAFTXK
TAF AMD
KTXK 250020Z 2500/2524 09009KT 2SM -TSRA BR OVC002CB
      TEMPO 2500/2503 1/2SM TSRA FG OVC002CB
     FM250300 17010G15KT 4SM TSRA BR BKN015CB OVC025
      TEMPO 2503/2506 VRB20G35KT 2SM +TSRA BR OVC010CB
     FM250700 20010G15KT P6SM BKN020 OVC040
     FM251500 23015G25KT P6SM SKC=



000
FTUS44 KSHV 242352
TAFGGG
TAF
KGGG 242352Z 2500/2524 12010KT 6SM -SHRA VCTS BKN025CB OVC035
     FM250300 17012G20KT 4SM TSRA BR BKN015CB OVC025
      TEMPO 2503/2506 VRB20G35KT 2SM +TSRA BR OVC010CB
     FM250600 20010G15KT P6SM BKN020 OVC040
     FM251500 23015G25KT P6SM SKC=



000
FTUS44 KSHV 242352
TAFTXK
TAF
KTXK 242352Z 2500/2524 09006KT 2SM -SHRA BR OVC002
     FM250300 17010G15KT 4SM TSRA BR BKN015CB OVC025
      TEMPO 2503/2506 VRB20G35KT 2SM +TSRA BR OVC010CB
     FM250700 20010G15KT P6SM BKN020 OVC040
     FM251500 23015G25KT P6SM SKC=



000
FTUS44 KSHV 242352
TAFLFK
TAF
KLFK 242352Z 2500/2524 16008KT P6SM SCT020 BKN030
     FM250500 17010G15KT 4SM TSRA BR BKN015CB OVC025
      TEMPO 2506/2509 VRB20G35KT 2SM +TSRA BR OVC010CB
     FM251000 18010G15KT P6SM BKN020 OVC040
     FM251800 23012G20KT P6SM SKC=



000
FTUS44 KSHV 242352
TAFELD
TAF
KELD 242352Z 2500/2524 09006KT 2SM -SHRA BR OVC002
      TEMPO 2502/2504 5SM TSRA BKN015CB
     FM250400 16010KT 4SM TSRA BR BKN015CB OVC025
      TEMPO 2505/2508 VRB20G35KT 2SM +TSRA BR OVC010CB
     FM250900 19010G15KT P6SM BKN020 OVC040
     FM251500 23015G25KT P6SM SKC=



000
FTUS44 KSHV 242352
TAFTYR
TAF
KTYR 242352Z 2500/2524 16011KT 6SM -SHRA VCTS BKN025CB OVC035
     FM250200 17012G20KT 4SM TSRA BR BKN015CB OVC025
      TEMPO 2502/2505 VRB20G35KT 2SM +TSRA BR OVC010CB
     FM250600 20010G15KT P6SM BKN020 OVC040
     FM251500 23015G25KT P6SM SKC=



000
FTUS44 KSHV 242352
TAFMLU
TAF
KMLU 242352Z 2500/2524 13007KT 6SM -SHRA VCTS BKN050CB OVC090
      TEMPO 2500/2503 5SM TSRA BKN035CB
     FM250600 17010KT 4SM TSRA BR BKN015CB OVC025
      TEMPO 2507/2510 VRB20G35KT 2SM +TSRA BR OVC010CB
     FM251200 19010G15KT P6SM BKN020 OVC040
     FM251800 23015G25KT P6SM SKC=



000
FTUS44 KSHV 242352
TAFSHV
TAF
KSHV 242352Z 2500/2524 12010KT 6SM -SHRA VCTS BKN025CB OVC035
     FM250400 17010G15KT 4SM TSRA BR BKN015CB OVC025
      TEMPO 2504/2507 VRB20G35KT 2SM +TSRA BR OVC010CB
     FM250900 21010G15KT P6SM BKN020 OVC040
     FM251500 23015G25KT P6SM SKC=



000
FTUS44 KSHV 242352
TAFTXK
TAF
KTXK 242352Z 2500/2524 09006KT 2SM -SHRA BR OVC002
     FM250300 17010G15KT 4SM TSRA BR BKN015CB OVC025
      TEMPO 2503/2506 VRB20G35KT 2SM +TSRA BR OVC010CB
     FM250700 20010G15KT P6SM BKN020 OVC040
     FM251500 23015G25KT P6SM SKC=



000
FTUS44 KSHV 242352
TAFGGG
TAF
KGGG 242352Z 2500/2524 12010KT 6SM -SHRA VCTS BKN025CB OVC035
     FM250300 17012G20KT 4SM TSRA BR BKN015CB OVC025
      TEMPO 2503/2506 VRB20G35KT 2SM +TSRA BR OVC010CB
     FM250600 20010G15KT P6SM BKN020 OVC040
     FM251500 23015G25KT P6SM SKC=



000
FTUS44 KSHV 242352
TAFLFK
TAF
KLFK 242352Z 2500/2524 16008KT P6SM SCT020 BKN030
     FM250500 17010G15KT 4SM TSRA BR BKN015CB OVC025
      TEMPO 2506/2509 VRB20G35KT 2SM +TSRA BR OVC010CB
     FM251000 18010G15KT P6SM BKN020 OVC040
     FM251800 23012G20KT P6SM SKC=



000
FTUS44 KSHV 242352
TAFSHV
TAF
KSHV 242352Z 2500/2524 12010KT 6SM -SHRA VCTS BKN025CB OVC035
     FM250400 17010G15KT 4SM TSRA BR BKN015CB OVC025
      TEMPO 2504/2507 VRB20G35KT 2SM +TSRA BR OVC010CB
     FM250900 21010G15KT P6SM BKN020 OVC040
     FM251500 23015G25KT P6SM SKC=



000
FTUS44 KSHV 242352
TAFELD
TAF
KELD 242352Z 2500/2524 09006KT 2SM -SHRA BR OVC002
      TEMPO 2502/2504 5SM TSRA BKN015CB
     FM250400 16010KT 4SM TSRA BR BKN015CB OVC025
      TEMPO 2505/2508 VRB20G35KT 2SM +TSRA BR OVC010CB
     FM250900 19010G15KT P6SM BKN020 OVC040
     FM251500 23015G25KT P6SM SKC=



000
FTUS44 KSHV 242352
TAFMLU
TAF
KMLU 242352Z 2500/2524 13007KT 6SM -SHRA VCTS BKN050CB OVC090
      TEMPO 2500/2503 5SM TSRA BKN035CB
     FM250600 17010KT 4SM TSRA BR BKN015CB OVC025
      TEMPO 2507/2510 VRB20G35KT 2SM +TSRA BR OVC010CB
     FM251200 19010G15KT P6SM BKN020 OVC040
     FM251800 23015G25KT P6SM SKC=



000
FTUS44 KSHV 242352
TAFTYR
TAF
KTYR 242352Z 2500/2524 16011KT 6SM -SHRA VCTS BKN025CB OVC035
     FM250200 17012G20KT 4SM TSRA BR BKN015CB OVC025
      TEMPO 2502/2505 VRB20G35KT 2SM +TSRA BR OVC010CB
     FM250600 20010G15KT P6SM BKN020 OVC040
     FM251500 23015G25KT P6SM SKC=



000
FTUS44 KSHV 242213 AAB
TAFGGG
TAF AMD
KGGG 242213Z 2422/2518 11005KT P6SM SCT040 BKN050 OVC080
     FM250100 20009KT P6SM VCTS BKN030CB
      TEMPO 2503/2507 VRB20G40KT 1SM +TSRA BR OVC010CB
     FM250900 24014G22KT P6SM SKC
      TEMPO 2509/2513 20012KT BKN040=



000
FTUS44 KSHV 242213 AAB
TAFGGG
TAF AMD
KGGG 242213Z 2422/2518 11005KT P6SM SCT040 BKN050 OVC080
     FM250100 20009KT P6SM VCTS BKN030CB
      TEMPO 2503/2507 VRB20G40KT 1SM +TSRA BR OVC010CB
     FM250900 24014G22KT P6SM SKC
      TEMPO 2509/2513 20012KT BKN040=



000
FTUS44 KSHV 242211 AAB
TAFTYR
TAF AMD
KTYR 242211Z 2422/2518 15010KT P6SM SCT030 OVC060
     FM250000 20009KT P6SM -SHRA VCTS BKN030CB
      TEMPO 2502/2506 VRB20G40KT 1SM +TSRA BR OVC010CB
     FM250900 24014G22KT P6SM SKC
      TEMPO 2509/2513 20012KT BKN040=



000
FTUS44 KSHV 242032 AAA
TAFGGG
TAF AMD
KGGG 242032Z 2421/2518 08005KT P6SM SCT040 OVC100
      TEMPO 2421/2501 VRB25G50KT 1SM +TSRAGR BR OVC010CB
     FM250100 20009KT P6SM VCTS BKN030CB
      TEMPO 2502/2506 VRB20G40KT 1SM +TSRA BR OVC010CB
     FM250900 24014G22KT P6SM SKC
      TEMPO 2509/2513 20012KT BKN040=



000
FTUS44 KSHV 242030 AAA
TAFLFK
TAF AMD
KLFK 242030Z 2421/2518 12010KT P6SM SCT030 OVC100
      TEMPO 2421/2501 3SM TSRA BR OVC020CB
     FM250100 20009KT P6SM VCTS BKN030CB
      TEMPO 2504/2508 VRB20G40KT 1SM +TSRA BR OVC010CB
     FM251000 24014G22KT P6SM SKC
      TEMPO 2510/2514 20012KT BKN040=



000
FTUS44 KSHV 242028 AAA
TAFTYR
TAF AMD
KTYR 242028Z 2420/2518 14010KT P6SM SCT030 OVC090
      TEMPO 2422/2502 VRB25G50KT 1SM +TSRAGR BR OVC010CB
     FM250200 20009KT P6SM VCTS BKN030CB
      TEMPO 2502/2506 VRB20G40KT 1SM +TSRA BR OVC010CB
     FM250900 24014G22KT P6SM SKC
      TEMPO 2509/2513 20012KT BKN040=



000
FTUS44 KSHV 242028 AAA
TAFTYR
TAF AMD
KTYR 242028Z 2420/2518 14010KT P6SM SCT030 OVC090
      TEMPO 2422/2502 VRB25G50KT 1SM +TSRAGR BR OVC010CB
     FM250200 20009KT P6SM VCTS BKN030CB
      TEMPO 2502/2506 VRB20G40KT 1SM +TSRA BR OVC010CB
     FM250900 24014G22KT P6SM SKC
      TEMPO 2509/2513 20012KT BKN040=



000
FTUS44 KSHV 242025 AAB
TAFTXK
TAF AMD
KTXK 242025Z 2420/2518 07005KT P6SM VCTS OVC004CB
      TEMPO 2421/2424 2SM TSRA BR OVC010CB
     FM250000 16008KT P6SM VCTS BKN020CB
      TEMPO 2502/2506 VRB20G40KT 1SM +TSRA BR OVC010CB
     FM251000 24014G22KT P6SM SKC
      TEMPO 2510/2513 20012KT BKN040=



000
FTUS44 KSHV 242023 AAB
TAFSHV
TAF AMD
KSHV 242023Z 2420/2518 17008KT P6SM BKN025
      TEMPO 2421/2422 3SM TSRA BR BKN008 OVC015CB
     FM250000 14012KT P6SM VCTS BKN040CB
      TEMPO 2500/2502 VRB25G50KT 1SM +TSRAGR BR OVC010CB
     FM250200 20009KT P6SM VCTS BKN030CB
      TEMPO 2504/2508 VRB15G30KT 1SM +TSRA BR OVC010CB
     FM251100 24014G22KT P6SM SKC
      TEMPO 2511/2515 20012KT BKN040=



000
FTUS44 KSHV 241909 AAA
TAFELD
TAF AMD
KELD 241909Z 2419/2518 06005KT P6SM VCSH OVC003
      TEMPO 2419/2421 4SM SHRA BR SCT005 OVC015
     FM250100 14008KT P6SM VCTS BKN020CB
      TEMPO 2505/2509 VRB15G30KT 1SM +TSRA BR OVC010CB
     FM251200 24012G18KT P6SM SKC
      TEMPO 2512/2516 20010KT BKN040=



000
FTUS44 KSHV 241909 AAA
TAFELD
TAF AMD
KELD 241909Z 2419/2518 06005KT P6SM VCSH OVC003
      TEMPO 2419/2421 4SM SHRA BR SCT005 OVC015
     FM250100 14008KT P6SM VCTS BKN020CB
      TEMPO 2505/2509 VRB15G30KT 1SM +TSRA BR OVC010CB
     FM251200 24012G18KT P6SM SKC
      TEMPO 2512/2516 20010KT BKN040=



000
FTUS44 KSHV 241907 AAB
TAFSHV
TAF AMD
KSHV 241907Z 2419/2518 20005KT P6SM SCT010 BKN020
      TEMPO 2419/2420 BKN008 OVC015
     FM242100 14012KT P6SM VCTS BKN020CB
      TEMPO 2422/2502 VRB25G50KT 1SM +TSRAGR BR OVC010CB
     FM250200 20009KT P6SM VCTS BKN030CB
      TEMPO 2504/2508 VRB15G30KT 1SM +TSRA BR OVC010CB
     FM251100 24014G22KT P6SM SKC
      TEMPO 2511/2515 20012KT BKN040=



000
FTUS44 KSHV 241907 AAB
TAFSHV
TAF AMD
KSHV 241907Z 2419/2518 20005KT P6SM SCT010 BKN020
      TEMPO 2419/2420 BKN008 OVC015
     FM242100 14012KT P6SM VCTS BKN020CB
      TEMPO 2422/2502 VRB25G50KT 1SM +TSRAGR BR OVC010CB
     FM250200 20009KT P6SM VCTS BKN030CB
      TEMPO 2504/2508 VRB15G30KT 1SM +TSRA BR OVC010CB
     FM251100 24014G22KT P6SM SKC
      TEMPO 2511/2515 20012KT BKN040=



000
FTUS44 KSHV 241823 AAA
TAFTXK
TAF AMD
KTXK 241823Z 2418/2518 07005KT P6SM OVC012
      TEMPO 2418/2420 4SM -SHRA BR OVC005
     FM250000 16008KT P6SM VCTS BKN020CB
      TEMPO 2502/2506 VRB20G40KT 1SM +TSRA BR OVC010CB
     FM251000 24014G22KT P6SM SKC
      TEMPO 2510/2513 20012KT BKN040=



000
FTUS44 KSHV 241823 AAA
TAFTXK
TAF AMD
KTXK 241823Z 2418/2518 07005KT P6SM OVC012
      TEMPO 2418/2420 4SM -SHRA BR OVC005
     FM250000 16008KT P6SM VCTS BKN020CB
      TEMPO 2502/2506 VRB20G40KT 1SM +TSRA BR OVC010CB
     FM251000 24014G22KT P6SM SKC
      TEMPO 2510/2513 20012KT BKN040=



000
FTUS44 KSHV 241745
TAFSHV
TAF
KSHV 241745Z 2418/2518 16010KT 5SM BR OVC004
      TEMPO 2418/2420 2SM BR
     FM242100 14012KT P6SM VCTS BKN020CB
      TEMPO 2422/2502 VRB25G50KT 1SM +TSRAGR BR OVC010CB
     FM250200 20009KT P6SM VCTS BKN030CB
      TEMPO 2504/2508 VRB15G30KT 1SM +TSRA BR OVC010CB
     FM251100 24014G22KT P6SM SKC
      TEMPO 2511/2515 20012KT BKN040=



000
FTUS44 KSHV 241745
TAFMLU
TAF
KMLU 241745Z 2418/2518 13005KT P6SM OVC015
     FM242200 16009KT P6SM VCTS BKN030CB
      TEMPO 2423/2503 VRB25G50KT 1SM +TSRA BR OVC010CB
     FM250300 20009KT P6SM TSRA OVC020CB
      TEMPO 2507/2511 VRB15G30KT 1SM +TSRA BR OVC010CB
     FM251500 21012G20KT P6SM SCT030=



000
FTUS44 KSHV 241745
TAFGGG
TAF
KGGG 241745Z 2418/2518 12010KT P6SM SCT020 BKN100
      TEMPO 2418/2420 BKN015
     FM242000 14012KT P6SM VCTS BKN020CB
      TEMPO 2421/2501 VRB25G50KT 1SM +TSRAGR BR OVC010CB
     FM250100 20009KT P6SM VCTS BKN030CB
      TEMPO 2502/2506 VRB20G40KT 1SM +TSRA BR OVC010CB
     FM250900 24014G22KT P6SM SKC
      TEMPO 2509/2513 20012KT BKN040=



000
FTUS44 KSHV 241745
TAFELD
TAF
KELD 241745Z 2418/2518 06005KT P6SM OVC010
      TEMPO 2418/2420 4SM SHRA BR OVC005
     FM250100 14008KT P6SM VCTS BKN020CB
      TEMPO 2505/2509 VRB15G30KT 1SM +TSRA BR OVC010CB
     FM251200 24012G18KT P6SM SKC
      TEMPO 2512/2516 20010KT BKN040=



000
FTUS44 KSHV 241745
TAFTYR
TAF
KTYR 241745Z 2418/2518 14010KT P6SM SCT020 BKN100
      TEMPO 2418/2420 BKN015
     FM242000 14012KT P6SM VCTS BKN020CB
      TEMPO 2421/2501 VRB25G50KT 1SM +TSRAGR BR OVC010CB
     FM250100 20009KT P6SM VCTS BKN030CB
      TEMPO 2502/2506 VRB20G40KT 1SM +TSRA BR OVC010CB
     FM250900 24014G22KT P6SM SKC
      TEMPO 2509/2513 20012KT BKN040=



000
FTUS44 KSHV 241745
TAFLFK
TAF
KLFK 241745Z 2418/2518 12010KT P6SM SCT020 BKN100
     FM242000 14012KT P6SM VCTS BKN020CB
      TEMPO 2421/2501 VRB25G50KT 1SM +TSRAGR BR OVC010CB
     FM250100 20009KT P6SM VCTS BKN030CB
      TEMPO 2504/2508 VRB20G40KT 1SM +TSRA BR OVC010CB
     FM251000 24014G22KT P6SM SKC
      TEMPO 2510/2514 20012KT BKN040=



000
FTUS44 KSHV 241745
TAFTXK
TAF
KTXK 241745Z 2418/2518 07005KT P6SM VCSH OVC012
     FM250000 16008KT P6SM VCTS BKN020CB
      TEMPO 2502/2506 VRB20G40KT 1SM +TSRA BR OVC010CB
     FM251000 24014G22KT P6SM SKC
      TEMPO 2510/2513 20012KT BKN040=



000
FTUS44 KSHV 241625 AAB
TAFGGG
TAF AMD
KGGG 241625Z 2416/2512 13012KT P6SM OVC004
      TEMPO 2416/2419 SCT005 OVC015
     FM241900 15008KT 5SM -SHRA VCTS BKN025CB OVC035
     FM242200 16012G22KT 4SM TSRA BKN030CB OVC050
     FM250200 17010KT 6SM -SHRA VCTS BKN020CB OVC030
     FM250600 19010KT P6SM OVC015
     FM250900 19015KT 5SM BR OVC007=



000
FTUS44 KSHV 241625 AAB
TAFGGG
TAF AMD
KGGG 241625Z 2416/2512 13012KT P6SM OVC004
      TEMPO 2416/2419 SCT005 OVC015
     FM241900 15008KT 5SM -SHRA VCTS BKN025CB OVC035
     FM242200 16012G22KT 4SM TSRA BKN030CB OVC050
     FM250200 17010KT 6SM -SHRA VCTS BKN020CB OVC030
     FM250600 19010KT P6SM OVC015
     FM250900 19015KT 5SM BR OVC007=



000
FTUS44 KSHV 241620 AAB
TAFTYR
TAF AMD
KTYR 241620Z 2416/2512 12008KT P6SM OVC005
      TEMPO 2416/2418 5SM BR SCT005 OVC015
     FM241800 17014G22KT 6SM TSRA BKN030CB OVC050
     FM250000 17010KT 6SM -SHRA VCTS BKN020CB OVC030
     FM250600 18009KT P6SM OVC025
     FM250900 20013KT 4SM BR OVC007=



000
FTUS44 KSHV 241619 AAC
TAFTXK
TAF AMD
KTXK 241619Z 2416/2512 08006KT P6SM VCTS SCT005 OVC015CB
      TEMPO 2416/2419 3SM TSRA BR OVC004CB
     FM241900 16012KT 4SM TSRA BKN030CB OVC050
     FM242200 17009KT 6SM -TSRA BKN020CB OVC030
     FM250900 20010KT P6SM SCT040 OVC100=



000
FTUS44 KSHV 241514 AAA
TAFELD
TAF AMD
KELD 241514Z 2415/2512 10005KT P6SM VCSH OVC008
      TEMPO 2416/2418 3SM TSRA BKN020CB
     FM241800 15008KT 6SM -SHRA VCTS BKN025CB OVC035
     FM242100 16009KT 4SM TSRA BKN030CB OVC050
     FM250300 17010KT 6SM -SHRA VCTS BKN020CB OVC030
     FM250900 20008KT 4SM BR OVC007=



000
FTUS44 KSHV 241514 AAA
TAFELD
TAF AMD
KELD 241514Z 2415/2512 10005KT P6SM VCSH OVC008
      TEMPO 2416/2418 3SM TSRA BKN020CB
     FM241800 15008KT 6SM -SHRA VCTS BKN025CB OVC035
     FM242100 16009KT 4SM TSRA BKN030CB OVC050
     FM250300 17010KT 6SM -SHRA VCTS BKN020CB OVC030
     FM250900 20008KT 4SM BR OVC007=



000
FTUS44 KSHV 241511 AAB
TAFTXK
TAF AMD
KTXK 241511Z 2415/2512 08006KT 3SM -TSRA BR OVC003CB
      TEMPO 2415/2416 1/2SM +TSRA FG SCT005 OVC010CB
     FM241900 16012KT 4SM TSRA BKN030CB OVC050
     FM242200 17009KT 6SM -TSRA BKN020CB OVC030
     FM250900 20010KT P6SM SCT040 OVC100=



000
FTUS44 KSHV 241504 AAC
TAFSHV
TAF AMD
KSHV 241504Z 2415/2512 13006KT P6SM OVC004
      TEMPO 2415/2418 4SM -SHRA SCT005 OVC015
     FM241800 16012G21KT P6SM VCTS BKN030CB OVC050
     FM250000 16014G24KT 3SM TSRA BKN030CB
     FM250300 17010KT 6SM -SHRA VCTS BKN020CB OVC030
     FM250600 20009KT P6SM OVC007=



000
FTUS44 KSHV 241504 AAC
TAFSHV
TAF AMD
KSHV 241504Z 2415/2512 13006KT P6SM OVC004
      TEMPO 2415/2418 4SM -SHRA SCT005 OVC015
     FM241800 16012G21KT P6SM VCTS BKN030CB OVC050
     FM250000 16014G24KT 3SM TSRA BKN030CB
     FM250300 17010KT 6SM -SHRA VCTS BKN020CB OVC030
     FM250600 20009KT P6SM OVC007=



000
FTUS44 KSHV 241412 AAB
TAFLFK
TAF AMD
KLFK 241412Z 2414/2512 14005KT P6SM VCSH SCT010 OVC050
      TEMPO 2414/2418 2SM TSRA BKN008 OVC015CB
     FM241800 17010G18KT 6SM TSRA BKN030CB OVC050
     FM250000 18009G19KT 6SM -SHRA VCTS BKN020CB OVC030
     FM250300 17014G20KT 6SM TSRA BKN030CB OVC050
     FM250900 20008KT 4SM BR OVC004=



000
FTUS44 KSHV 241358 AAA
TAFGGG
TAF AMD
KGGG 241358Z 2414/2512 07006KT 4SM BR VCSH OVC004
      TEMPO 2414/2416 6SM -SHRA BR SCT005 OVC015
     FM241600 15008KT 5SM -SHRA VCTS BKN025CB OVC035
     FM242200 16012G22KT 4SM TSRA BKN030CB OVC050
     FM250200 17010KT 6SM -SHRA VCTS BKN020CB OVC030
     FM250600 19010KT P6SM OVC015
     FM250900 19015KT 5SM BR OVC007=



000
FTUS44 KSHV 241356 AAA
TAFTYR
TAF AMD
KTYR 241356Z 2414/2512 12008KT 3SM BR VCSH OVC003
      TEMPO 2414/2416 6SM -SHRA SCT005 OVC015
     FM241600 17014G22KT 6SM TSRA BKN030CB OVC050
     FM250000 17010KT 6SM -SHRA VCTS BKN020CB OVC030
     FM250600 18009KT P6SM OVC025
     FM250900 20013KT 4SM BR OVC007=



000
FTUS44 KSHV 241356 AAA
TAFTYR
TAF AMD
KTYR 241356Z 2414/2512 12008KT 3SM BR VCSH OVC003
      TEMPO 2414/2416 6SM -SHRA SCT005 OVC015
     FM241600 17014G22KT 6SM TSRA BKN030CB OVC050
     FM250000 17010KT 6SM -SHRA VCTS BKN020CB OVC030
     FM250600 18009KT P6SM OVC025
     FM250900 20013KT 4SM BR OVC007=



000
FTUS44 KSHV 241353 AAA
TAFTXK
TAF AMD
KTXK 241353Z 2414/2512 08006KT P6SM VCSH OVC004
      TEMPO 2414/2417 2SM TSRA BKN010 OVC020CB
     FM241700 15008KT 5SM -SHRA VCTS BKN025CB OVC035
     FM241900 16012KT 4SM TSRA BKN030CB OVC050
     FM242200 17009KT 6SM -TSRA BKN020CB OVC030
     FM250900 20010KT P6SM SCT040 OVC100=



000
FTUS44 KSHV 241350 AAA
TAFMLU
TAF AMD
KMLU 241350Z 2414/2512 11005KT P6SM VCSH BKN015 OVC080
      TEMPO 2414/2416 6SM -SHRA BR SCT020 BKN100
     FM241900 15008KT 6SM -SHRA VCTS BKN025CB OVC035
     FM242200 16009KT 4SM TSRA BKN030CB OVC050
     FM250400 17010KT 6SM -SHRA VCTS BKN020CB OVC030
     FM250900 21009KT P6SM OVC007=



000
FTUS44 KSHV 241346 AAB
TAFSHV
TAF AMD
KSHV 241346Z 2414/2512 13006KT P6SM BKN008 OVC020
      TEMPO 2414/2416 4SM -SHRA SCT015 OVC035
     FM241600 15008KT 6SM -SHRA BKN007 OVC015
     FM241800 16012G21KT P6SM VCTS BKN030CB OVC050
     FM250000 16014G24KT 3SM TSRA BKN030CB
     FM250300 17010KT 6SM -SHRA VCTS BKN020CB OVC030
     FM250600 20009KT P6SM OVC007=



000
FTUS44 KSHV 241343 AAA
TAFLFK
TAF AMD
KLFK 241343Z 2414/2512 14005KT P6SM VCSH OVC008
      TEMPO 2415/2418 2SM TSRA OVC015CB
     FM241800 17010G18KT 6SM TSRA BKN030CB OVC050
     FM250000 18009G19KT 6SM -SHRA VCTS BKN020CB OVC030
     FM250300 17014G20KT 6SM TSRA BKN030CB OVC050
     FM250900 20008KT 4SM BR OVC004=



000
FTUS44 KSHV 241343 AAA
TAFLFK
TAF AMD
KLFK 241343Z 2414/2512 14005KT P6SM VCSH OVC008
      TEMPO 2415/2418 2SM TSRA OVC015CB
     FM241800 17010G18KT 6SM TSRA BKN030CB OVC050
     FM250000 18009G19KT 6SM -SHRA VCTS BKN020CB OVC030
     FM250300 17014G20KT 6SM TSRA BKN030CB OVC050
     FM250900 20008KT 4SM BR OVC004=



000
FTUS44 KSHV 241258 AAA
TAFSHV
TAF AMD
KSHV 241258Z 2413/2512 15007KT P6SM FEW006 SCT035 BKN120
      TEMPO 2413/2415 4SM -SHRA OVC006
     FM241500 15008KT 6SM -SHRA BKN007 OVC015
     FM241800 16012G21KT P6SM VCTS BKN030CB OVC050
     FM250000 16014G24KT 3SM TSRA BKN030CB
     FM250300 17010KT 6SM -SHRA VCTS BKN020CB OVC030
     FM250600 20009KT P6SM OVC007=



000
FTUS44 KSHV 241258 AAA
TAFSHV
TAF AMD
KSHV 241258Z 2413/2512 15007KT P6SM FEW006 SCT035 BKN120
      TEMPO 2413/2415 4SM -SHRA OVC006
     FM241500 15008KT 6SM -SHRA BKN007 OVC015
     FM241800 16012G21KT P6SM VCTS BKN030CB OVC050
     FM250000 16014G24KT 3SM TSRA BKN030CB
     FM250300 17010KT 6SM -SHRA VCTS BKN020CB OVC030
     FM250600 20009KT P6SM OVC007=



000
FTUS44 KSHV 241148
TAFLFK
TAF
KLFK 241148Z 2412/2512 14005KT P6SM SCT020 BKN035
     FM241500 16008KT 5SM -SHRA VCTS BKN025CB OVC035
      TEMPO 2415/2418 2SM -TSRA OVC025CB
     FM241800 17010G18KT 6SM TSRA BKN030CB OVC050
     FM250000 18009G19KT 6SM -SHRA VCTS BKN020CB OVC030
     FM250300 17014G20KT 6SM TSRA BKN030CB OVC050
     FM250900 20008KT 4SM BR OVC004=



000
FTUS44 KSHV 241148
TAFELD
TAF
KELD 241148Z 2412/2512 10003KT P6SM VCSH SCT040
      TEMPO 2412/2413 5SM -TSRA BKN020CB
     FM241500 14006KT P6SM VCSH BKN015
     FM241800 15008KT 6SM -SHRA VCTS BKN025CB OVC035
     FM242100 16009KT 4SM TSRA BKN030CB OVC050
     FM250300 17010KT 6SM -SHRA VCTS BKN020CB OVC030
     FM250900 20008KT 4SM BR OVC007=



000
FTUS44 KSHV 241148
TAFTYR
TAF
KTYR 241148Z 2412/2512 08008KT P6SM OVC005
     FM241500 16011KT 6SM -SHRA VCTS BKN025CB OVC035
     FM241800 17014G22KT 6SM TSRA BKN030CB OVC050
     FM250000 17010KT 6SM -SHRA VCTS BKN020CB OVC030
     FM250600 18009KT P6SM OVC025
     FM250900 20013KT 4SM BR OVC007=



000
FTUS44 KSHV 241148
TAFGGG
TAF
KGGG 241148Z 2412/2512 07006KT P6SM -RA OVC007
     FM241500 15008KT 5SM -SHRA VCTS BKN025CB OVC035
     FM242200 16012G22KT 4SM TSRA BKN030CB OVC050
     FM250200 17010KT 6SM -SHRA VCTS BKN020CB OVC030
     FM250600 19010KT P6SM OVC015
     FM250900 19015KT 5SM BR OVC007=



000
FTUS44 KSHV 241148
TAFLFK
TAF
KLFK 241148Z 2412/2512 14005KT P6SM SCT020 BKN035
     FM241500 16008KT 5SM -SHRA VCTS BKN025CB OVC035
      TEMPO 2415/2418 2SM -TSRA OVC025CB
     FM241800 17010G18KT 6SM TSRA BKN030CB OVC050
     FM250000 18009G19KT 6SM -SHRA VCTS BKN020CB OVC030
     FM250300 17014G20KT 6SM TSRA BKN030CB OVC050
     FM250900 20008KT 4SM BR OVC004=



000
FTUS44 KSHV 241148
TAFMLU
TAF
KMLU 241148Z 2412/2512 09003KT P6SM FEW010 SCT110
      TEMPO 2412/2415 6SM -SHRA BR OVC006
     FM241500 14006KT P6SM VCSH BKN015
     FM241900 15008KT 6SM -SHRA VCTS BKN025CB OVC035
     FM242200 16009KT 4SM TSRA BKN030CB OVC050
     FM250400 17010KT 6SM -SHRA VCTS BKN020CB OVC030
     FM250900 21009KT P6SM OVC007=



000
FTUS44 KSHV 241148
TAFTXK
TAF
KTXK 241148Z 2412/2512 00000KT P6SM VCTS BKN008 BKN021 OVC035CB
      TEMPO 2412/2414 VRB06KT 2SM -TSRA BKN008 OVC040CB
     FM241400 14007KT 6SM -SHRA OVC015
     FM241700 15008KT 5SM -SHRA VCTS BKN025CB OVC035
     FM241900 16012KT 4SM TSRA BKN030CB OVC050
     FM242200 17009KT 6SM -TSRA BKN020CB OVC030
     FM250900 20010KT P6SM SCT040 OVC100=



000
FTUS44 KSHV 241148
TAFTXK
TAF
KTXK 241148Z 2412/2512 00000KT P6SM VCTS BKN008 BKN021 OVC035CB
      TEMPO 2412/2414 VRB06KT 2SM -TSRA BKN008 OVC040CB
     FM241400 14007KT 6SM -SHRA OVC015
     FM241700 15008KT 5SM -SHRA VCTS BKN025CB OVC035
     FM241900 16012KT 4SM TSRA BKN030CB OVC050
     FM242200 17009KT 6SM -TSRA BKN020CB OVC030
     FM250900 20010KT P6SM SCT040 OVC100=



000
FTUS44 KSHV 241148
TAFTYR
TAF
KTYR 241148Z 2412/2512 08008KT P6SM OVC005
     FM241500 16011KT 6SM -SHRA VCTS BKN025CB OVC035
     FM241800 17014G22KT 6SM TSRA BKN030CB OVC050
     FM250000 17010KT 6SM -SHRA VCTS BKN020CB OVC030
     FM250600 18009KT P6SM OVC025
     FM250900 20013KT 4SM BR OVC007=



000
FTUS44 KSHV 241148
TAFSHV
TAF
KSHV 241148Z 2412/2512 09003KT P6SM -RA SCT009 SCT040 BKN120
      TEMPO 2412/2415 4SM -SHRA OVC009
     FM241500 15008KT 6SM -SHRA BKN007 OVC015
     FM241800 16012G21KT P6SM VCTS BKN030CB OVC050
     FM250000 16014G24KT 3SM TSRA BKN030CB
     FM250300 17010KT 6SM -SHRA VCTS BKN020CB OVC030
     FM250600 20009KT P6SM OVC007=



000
FTUS44 KSHV 241148
TAFELD
TAF
KELD 241148Z 2412/2512 10003KT P6SM VCSH SCT040
      TEMPO 2412/2413 5SM -TSRA BKN020CB
     FM241500 14006KT P6SM VCSH BKN015
     FM241800 15008KT 6SM -SHRA VCTS BKN025CB OVC035
     FM242100 16009KT 4SM TSRA BKN030CB OVC050
     FM250300 17010KT 6SM -SHRA VCTS BKN020CB OVC030
     FM250900 20008KT 4SM BR OVC007=



000
FTUS44 KSHV 241148
TAFMLU
TAF
KMLU 241148Z 2412/2512 09003KT P6SM FEW010 SCT110
      TEMPO 2412/2415 6SM -SHRA BR OVC006
     FM241500 14006KT P6SM VCSH BKN015
     FM241900 15008KT 6SM -SHRA VCTS BKN025CB OVC035
     FM242200 16009KT 4SM TSRA BKN030CB OVC050
     FM250400 17010KT 6SM -SHRA VCTS BKN020CB OVC030
     FM250900 21009KT P6SM OVC007=



000
FTUS44 KSHV 241148
TAFGGG
TAF
KGGG 241148Z 2412/2512 07006KT P6SM -RA OVC007
     FM241500 15008KT 5SM -SHRA VCTS BKN025CB OVC035
     FM242200 16012G22KT 4SM TSRA BKN030CB OVC050
     FM250200 17010KT 6SM -SHRA VCTS BKN020CB OVC030
     FM250600 19010KT P6SM OVC015
     FM250900 19015KT 5SM BR OVC007=



000
FTUS44 KSHV 241148
TAFSHV
TAF
KSHV 241148Z 2412/2512 09003KT P6SM -RA SCT009 SCT040 BKN120
      TEMPO 2412/2415 4SM -SHRA OVC009
     FM241500 15008KT 6SM -SHRA BKN007 OVC015
     FM241800 16012G21KT P6SM VCTS BKN030CB OVC050
     FM250000 16014G24KT 3SM TSRA BKN030CB
     FM250300 17010KT 6SM -SHRA VCTS BKN020CB OVC030
     FM250600 20009KT P6SM OVC007=



000
FTUS44 KSHV 241055 AAB
TAFTXK
TAF AMD
KTXK 241055Z 2411/2506 00000KT P6SM VCSH SCT008 BKN040
      TEMPO 2411/2414 VRB10G20KT 2SM -TSRA BKN008 OVC040CB
     FM241400 14007KT 6SM -SHRA OVC015
     FM241700 15008KT 5SM -SHRA VCTS BKN025CB OVC035
     FM241900 16012G19KT 4SM TSRA BKN030CB OVC050
     FM250100 17009KT 6SM -TSRA BKN020CB OVC030=



000
FTUS44 KSHV 241055 AAB
TAFTXK
TAF AMD
KTXK 241055Z 2411/2506 00000KT P6SM VCSH SCT008 BKN040
      TEMPO 2411/2414 VRB10G20KT 2SM -TSRA BKN008 OVC040CB
     FM241400 14007KT 6SM -SHRA OVC015
     FM241700 15008KT 5SM -SHRA VCTS BKN025CB OVC035
     FM241900 16012G19KT 4SM TSRA BKN030CB OVC050
     FM250100 17009KT 6SM -TSRA BKN020CB OVC030=



000
FTUS44 KSHV 240921 AAA
TAFTYR
TAF AMD
KTYR 240921Z 2409/2506 14006KT P6SM VCSH OVC006
      TEMPO 2409/2412 5SM -SHRA BR OVC008
     FM241200 15009KT 5SM -SHRA OVC010
     FM241500 16011KT 6SM -SHRA VCTS BKN025CB OVC035
     FM241800 17014G24KT 6SM TSRA BKN030CB OVC050
     FM250000 17010KT 6SM -SHRA VCTS BKN020CB OVC030=



000
FTUS44 KSHV 240918 AAB
TAFLFK
TAF AMD
KLFK 240918Z 2409/2506 09006KT P6SM VCSH FEW017 SCT030
     FM241000 15009KT 6SM -SHRA OVC015
     FM241500 16008KT 5SM -SHRA VCTS BKN025CB OVC035
     FM241800 17010G18KT 4SM TSRA BKN030CB OVC050
     FM250000 18009KT 6SM -SHRA VCTS BKN020CB OVC030=



000
FTUS44 KSHV 240917 AAB
TAFMLU
TAF AMD
KMLU 240917Z 2409/2506 05003KT P6SM FEW006
      TEMPO 2411/2415 OVC006
     FM241500 14006KT P6SM VCSH BKN015
     FM241900 15008KT 6SM -SHRA VCTS BKN025CB OVC035
     FM242200 16009KT 4SM TSRA BKN030CB OVC050
     FM250400 17010KT 6SM -SHRA VCTS BKN020CB OVC030=



000
FTUS44 KSHV 240828 AAA
TAFMLU
TAF AMD
KMLU 240828Z 2408/2506 06005KT P6SM SCT007
     FM240900 08004KT 5SM BR OVC006
     FM241500 14006KT P6SM VCSH BKN015
     FM241900 15008KT 6SM -SHRA VCTS BKN025CB OVC035
     FM242200 16009KT 4SM TSRA BKN030CB OVC050
     FM250400 17010KT 6SM -SHRA VCTS BKN020CB OVC030=



000
FTUS44 KSHV 240812 AAB
TAFSHV
TAF AMD
KSHV 240812Z 2408/2506 10006KT P6SM FEW012 BKN110 OVC150
      TEMPO 2408/2412 5SM -SHRA BR OVC010
     FM241200 11005KT P6SM VCSH OVC007
      TEMPO 2412/2415 -SHRA OVC004
     FM241500 15008G17KT 6SM -SHRA BKN007 OVC015
     FM241800 16012G21KT P6SM VCTS BKN030CB OVC050
     FM250000 16014G24KT 3SM TSRA BKN030CB
     FM250300 17010KT 6SM -SHRA VCTS BKN020CB OVC030=



000
FTUS44 KSHV 240649 AAA
TAFGGG
TAF AMD
KGGG 240649Z 2407/2506 06006KT P6SM OVC009
     FM240900 12006KT 5SM BR VCSH OVC007
     FM241200 14009KT 6SM -SHRA OVC010
     FM241500 15008KT 5SM -SHRA VCTS BKN025CB OVC035
     FM241800 16012G22KT 4SM TSRA BKN030CB OVC050
     FM250000 17010KT 6SM -SHRA VCTS BKN020CB OVC030=



000
FTUS44 KSHV 240649 AAA
TAFLFK
TAF AMD
KLFK 240649Z 2407/2506 09004KT P6SM BKN027
     FM240900 14004KT 4SM BR VCSH OVC007
     FM241200 15009KT 6SM -SHRA OVC010
     FM241500 16008KT 5SM -SHRA VCTS BKN025CB OVC035
     FM241800 17010G18KT 4SM TSRA BKN030CB OVC050
     FM250000 18009KT 6SM -SHRA VCTS BKN020CB OVC030=



000
FTUS44 KSHV 240649 AAA
TAFLFK
TAF AMD
KLFK 240649Z 2407/2506 09004KT P6SM BKN027
     FM240900 14004KT 4SM BR VCSH OVC007
     FM241200 15009KT 6SM -SHRA OVC010
     FM241500 16008KT 5SM -SHRA VCTS BKN025CB OVC035
     FM241800 17010G18KT 4SM TSRA BKN030CB OVC050
     FM250000 18009KT 6SM -SHRA VCTS BKN020CB OVC030=



000
FTUS44 KSHV 240648 AAA
TAFTXK
TAF AMD
KTXK 240648Z 2407/2506 07003KT P6SM FEW045
     FM241000 12006KT P6SM VCSH OVC007
     FM241400 14007KT 6SM -SHRA OVC015
     FM241700 15008KT 5SM -SHRA VCTS BKN025CB OVC035
     FM241900 16012G19KT 4SM TSRA BKN030CB OVC050
     FM250100 17009KT 6SM -TSRA BKN020CB OVC030=



000
FTUS44 KSHV 240648 AAA
TAFTXK
TAF AMD
KTXK 240648Z 2407/2506 07003KT P6SM FEW045
     FM241000 12006KT P6SM VCSH OVC007
     FM241400 14007KT 6SM -SHRA OVC015
     FM241700 15008KT 5SM -SHRA VCTS BKN025CB OVC035
     FM241900 16012G19KT 4SM TSRA BKN030CB OVC050
     FM250100 17009KT 6SM -TSRA BKN020CB OVC030=



000
FTUS44 KSHV 240540
TAFTXK
TAF
KTXK 240540Z 2406/2506 10006KT P6SM OVC012
     FM241000 12006KT P6SM VCSH OVC007
     FM241400 14007KT 6SM -SHRA OVC015
     FM241700 15008KT 5SM -SHRA VCTS BKN025CB OVC035
     FM241900 16012G19KT 4SM TSRA BKN030CB OVC050
     FM250100 17009KT 6SM -TSRA BKN020CB OVC030=



000
FTUS44 KSHV 240540
TAFGGG
TAF
KGGG 240540Z 2406/2506 09007KT P6SM OVC010
     FM240900 12006KT 5SM BR VCSH OVC007
     FM241200 14009KT 6SM -SHRA OVC010
     FM241500 15008KT 5SM -SHRA VCTS BKN025CB OVC035
     FM241800 16012G22KT 4SM TSRA BKN030CB OVC050
     FM250000 17010KT 6SM -SHRA VCTS BKN020CB OVC030=



000
FTUS44 KSHV 240540
TAFLFK
TAF
KLFK 240540Z 2406/2506 09007KT P6SM SKC
     FM240900 14004KT 4SM BR VCSH OVC007
     FM241200 15009KT 6SM -SHRA OVC010
     FM241500 16008KT 5SM -SHRA VCTS BKN025CB OVC035
     FM241800 17010G18KT 4SM TSRA BKN030CB OVC050
     FM250000 18009KT 6SM -SHRA VCTS BKN020CB OVC030=



000
FTUS44 KSHV 240540
TAFSHV
TAF
KSHV 240540Z 2406/2506 10006KT P6SM OVC011
     FM240900 10005KT 5SM BR OVC009
     FM241200 11005KT P6SM VCSH OVC007
      TEMPO 2412/2415 -SHRA OVC004
     FM241500 15008G17KT 6SM -SHRA BKN007 OVC015
     FM241800 16012G21KT P6SM VCTS BKN030CB OVC050
     FM250000 16014G24KT 3SM TSRA BKN030CB
     FM250300 17010KT 6SM -SHRA VCTS BKN020CB OVC030=



000
FTUS44 KSHV 240540
TAFELD
TAF
KELD 240540Z 2406/2506 08007KT P6SM SCT050
     FM240800 10005KT 5SM BR OVC010
     FM241500 14006KT P6SM VCSH BKN015
     FM241800 15008KT 6SM -SHRA VCTS BKN025CB OVC035
     FM242100 16009KT 4SM TSRA BKN030CB OVC050
     FM250300 17010KT 6SM -SHRA VCTS BKN020CB OVC030=



000
FTUS44 KSHV 240540
TAFMLU
TAF
KMLU 240540Z 2406/2506 06005KT P6SM OVC008
     FM240900 08004KT 5SM BR OVC006
     FM241500 14006KT P6SM VCSH BKN015
     FM241900 15008KT 6SM -SHRA VCTS BKN025CB OVC035
     FM242200 16009KT 4SM TSRA BKN030CB OVC050
     FM250400 17010KT 6SM -SHRA VCTS BKN020CB OVC030=



000
FTUS44 KSHV 240540
TAFTYR
TAF
KTYR 240540Z 2406/2506 08008KT P6SM BKN008
     FM240900 14007KT 5SM BR VCSH OVC006
     FM241200 15009KT 6SM -SHRA OVC010
     FM241500 16011KT 5SM -SHRA VCTS BKN025CB OVC035
     FM241800 17014G24KT 4SM TSRA BKN030CB OVC050
     FM250000 17010KT 6SM -SHRA VCTS BKN020CB OVC030=



000
FTUS44 KSHV 240440 AAA
TAFTYR
TAF AMD
KTYR 240440Z 2405/2424 09008KT P6SM BKN009
     FM240900 14007KT 5SM BR VCSH OVC006
     FM241200 15009KT 6SM -SHRA OVC010
     FM241500 16008KT 5SM -SHRA VCTS BKN025CB OVC035
     FM241800 17011KT 4SM TSRA BKN030CB OVC050=



000
FTUS44 KSHV 240440 AAA
TAFTYR
TAF AMD
KTYR 240440Z 2405/2424 09008KT P6SM BKN009
     FM240900 14007KT 5SM BR VCSH OVC006
     FM241200 15009KT 6SM -SHRA OVC010
     FM241500 16008KT 5SM -SHRA VCTS BKN025CB OVC035
     FM241800 17011KT 4SM TSRA BKN030CB OVC050=



000
FTUS44 KSHV 240429 AAA
TAFMLU
TAF AMD
KMLU 240429Z 2404/2424 05007KT P6SM SCT010
      TEMPO 2405/2409 BKN009
     FM240900 08004KT 5SM BR OVC007
     FM241500 14006KT P6SM VCSH BKN015
     FM241800 15008KT 6SM -SHRA VCTS BKN025CB OVC035
     FM242100 16009KT 4SM TSRA BKN030CB OVC050=



000
FTUS44 KSHV 240336 AAA
TAFGGG
TAF AMD
KGGG 240336Z 2404/2424 09008KT P6SM BKN011
     FM240900 12006KT 5SM BR VCSH OVC007
     FM241200 14009KT 6SM -SHRA OVC010
     FM241500 15008KT 5SM -SHRA VCTS BKN025CB OVC035
     FM241800 17011KT 4SM TSRA BKN030CB OVC050=



000
FTUS44 KSHV 240336 AAA
TAFGGG
TAF AMD
KGGG 240336Z 2404/2424 09008KT P6SM BKN011
     FM240900 12006KT 5SM BR VCSH OVC007
     FM241200 14009KT 6SM -SHRA OVC010
     FM241500 15008KT 5SM -SHRA VCTS BKN025CB OVC035
     FM241800 17011KT 4SM TSRA BKN030CB OVC050=



000
FTUS44 KSHV 240336 AAA
TAFTXK
TAF AMD
KTXK 240336Z 2404/2424 10007KT P6SM OVC012
     FM241000 12006KT P6SM VCSH OVC007
     FM241400 14007KT 6SM -SHRA OVC015
     FM241700 15008KT 5SM -SHRA VCTS BKN025CB OVC035
     FM241900 16010KT 4SM TSRA BKN030CB OVC050=



000
FTUS44 KSHV 240335 AAA
TAFSHV
TAF AMD
KSHV 240335Z 2404/2424 08008KT P6SM BKN012
     FM241000 12006KT 5SM BR OVC007
     FM241500 14007KT P6SM VCSH BKN015
      TEMPO 2415/2417 -SHRA OVC015
     FM241700 15008KT 6SM -SHRA VCTS BKN025CB OVC035
     FM241900 16011KT 4SM TSRA BKN030CB OVC050=



000
FTUS44 KSHV 232347
TAFTXK
TAF
KTXK 232347Z 2400/2424 11006KT P6SM BKN015 OVC045
     FM240300 06006KT P6SM BKN035 BKN150
     FM240900 12006KT P6SM VCSH OVC010
     FM241400 14007KT 6SM -SHRA OVC015
     FM241700 15008KT 5SM -SHRA VCTS BKN025CB OVC035
     FM241900 16010KT 4SM TSRA BKN030CB OVC050=



000
FTUS44 KSHV 232347
TAFSHV
TAF
KSHV 232347Z 2400/2424 06008KT P6SM BKN015 OVC035
     FM240300 06006KT P6SM BKN035 OVC200
     FM241000 12006KT 5SM BR OVC007
     FM241500 14007KT P6SM VCSH BKN015
      TEMPO 2415/2417 -SHRA OVC015
     FM241700 15008KT 6SM -SHRA VCTS BKN025CB OVC035
     FM241900 16011KT 4SM TSRA BKN030CB OVC050=



000
FTUS44 KSHV 232347
TAFELD
TAF
KELD 232347Z 2400/2424 03006KT P6SM OVC015
     FM240300 06006KT P6SM BKN035 BKN200
     FM240900 10005KT 5SM BR OVC010
     FM241500 14006KT P6SM VCSH BKN015
     FM241800 15008KT 6SM -SHRA VCTS BKN025CB OVC035
     FM242100 16009KT 4SM TSRA BKN030CB OVC050=



000
FTUS44 KSHV 232347
TAFLFK
TAF
KLFK 232347Z 2400/2424 08005KT P6SM FEW035 BKN250
     FM240300 10005KT P6SM BKN035 BKN150
     FM240900 14004KT 4SM BR VCSH OVC007
     FM241200 17009KT 6SM -SHRA OVC010
     FM241500 15008KT 5SM -SHRA VCTS BKN025CB OVC035
     FM241800 17010KT 4SM TSRA BKN030CB OVC050=



000
FTUS44 KSHV 232347
TAFTYR
TAF
KTYR 232347Z 2400/2424 09009KT P6SM SCT025 BKN035
     FM240100 10007KT P6SM BKN035 BKN150
     FM240900 14007KT 5SM BR VCSH OVC007
     FM241200 15009KT 6SM -SHRA OVC010
     FM241500 16008KT 5SM -SHRA VCTS BKN025CB OVC035
     FM241800 17011KT 4SM TSRA BKN030CB OVC050=



000
FTUS44 KSHV 232347
TAFMLU
TAF
KMLU 232347Z 2400/2424 05007KT P6SM OVC014
     FM240300 06006KT P6SM BKN040 BKN200
     FM240900 08004KT 4SM BR OVC007
     FM241500 14006KT P6SM VCSH BKN015
     FM241800 15008KT 6SM -SHRA VCTS BKN025CB OVC035
     FM242100 16009KT 4SM TSRA BKN030CB OVC050=



000
FTUS44 KSHV 232347
TAFGGG
TAF
KGGG 232347Z 2400/2424 08009KT P6SM OVC011
     FM240300 09006KT P6SM BKN035 BKN150
     FM240900 12006KT 4SM BR VCSH OVC007
     FM241200 14009KT 6SM -SHRA OVC010
     FM241500 15008KT 5SM -SHRA VCTS BKN025CB OVC035
     FM241800 17011KT 4SM TSRA BKN030CB OVC050=



000
FTUS44 KSHV 232347
TAFLFK
TAF
KLFK 232347Z 2400/2424 08005KT P6SM FEW035 BKN250
     FM240300 10005KT P6SM BKN035 BKN150
     FM240900 14004KT 4SM BR VCSH OVC007
     FM241200 17009KT 6SM -SHRA OVC010
     FM241500 15008KT 5SM -SHRA VCTS BKN025CB OVC035
     FM241800 17010KT 4SM TSRA BKN030CB OVC050=



000
FTUS44 KSHV 232347
TAFELD
TAF
KELD 232347Z 2400/2424 03006KT P6SM OVC015
     FM240300 06006KT P6SM BKN035 BKN200
     FM240900 10005KT 5SM BR OVC010
     FM241500 14006KT P6SM VCSH BKN015
     FM241800 15008KT 6SM -SHRA VCTS BKN025CB OVC035
     FM242100 16009KT 4SM TSRA BKN030CB OVC050=



000
FTUS44 KSHV 232347
TAFGGG
TAF
KGGG 232347Z 2400/2424 08009KT P6SM OVC011
     FM240300 09006KT P6SM BKN035 BKN150
     FM240900 12006KT 4SM BR VCSH OVC007
     FM241200 14009KT 6SM -SHRA OVC010
     FM241500 15008KT 5SM -SHRA VCTS BKN025CB OVC035
     FM241800 17011KT 4SM TSRA BKN030CB OVC050=



000
FTUS44 KSHV 232347
TAFTYR
TAF
KTYR 232347Z 2400/2424 09009KT P6SM SCT025 BKN035
     FM240100 10007KT P6SM BKN035 BKN150
     FM240900 14007KT 5SM BR VCSH OVC007
     FM241200 15009KT 6SM -SHRA OVC010
     FM241500 16008KT 5SM -SHRA VCTS BKN025CB OVC035
     FM241800 17011KT 4SM TSRA BKN030CB OVC050=



000
FTUS44 KSHV 232347
TAFSHV
TAF
KSHV 232347Z 2400/2424 06008KT P6SM BKN015 OVC035
     FM240300 06006KT P6SM BKN035 OVC200
     FM241000 12006KT 5SM BR OVC007
     FM241500 14007KT P6SM VCSH BKN015
      TEMPO 2415/2417 -SHRA OVC015
     FM241700 15008KT 6SM -SHRA VCTS BKN025CB OVC035
     FM241900 16011KT 4SM TSRA BKN030CB OVC050=



000
FTUS44 KSHV 232347
TAFTXK
TAF
KTXK 232347Z 2400/2424 11006KT P6SM BKN015 OVC045
     FM240300 06006KT P6SM BKN035 BKN150
     FM240900 12006KT P6SM VCSH OVC010
     FM241400 14007KT 6SM -SHRA OVC015
     FM241700 15008KT 5SM -SHRA VCTS BKN025CB OVC035
     FM241900 16010KT 4SM TSRA BKN030CB OVC050=



000
FTUS44 KSHV 232347
TAFMLU
TAF
KMLU 232347Z 2400/2424 05007KT P6SM OVC014
     FM240300 06006KT P6SM BKN040 BKN200
     FM240900 08004KT 4SM BR OVC007
     FM241500 14006KT P6SM VCSH BKN015
     FM241800 15008KT 6SM -SHRA VCTS BKN025CB OVC035
     FM242100 16009KT 4SM TSRA BKN030CB OVC050=



000
FTUS44 KSHV 231749
TAFELD
TAF
KELD 231749Z 2318/2418 06009KT P6SM OVC007
     FM240000 07008KT P6SM BKN035
     FM240600 10005KT P6SM OVC015
     FM241600 13006KT P6SM OVC015=



000
FTUS44 KSHV 231749
TAFTXK
TAF
KTXK 231749Z 2318/2418 06007KT P6SM OVC006
     FM232100 06007KT P6SM OVC020
     FM240900 11006KT P6SM OVC010
     FM241400 15008KT P6SM OVC015=



000
FTUS44 KSHV 231749
TAFSHV
TAF
KSHV 231749Z 2318/2418 04007KT P6SM BKN060 OVC100
     FM240200 09007KT P6SM BKN150
     FM241000 14008KT 4SM BR OVC007
     FM241500 14008KT P6SM BKN015
     FM241700 15008KT P6SM BKN025=



000
FTUS44 KSHV 231749
TAFTYR
TAF
KTYR 231749Z 2318/2418 11010KT P6SM OVC020
     FM240100 10007KT P6SM SCT035 BKN150
     FM240900 14007KT 4SM BR OVC007
     FM241400 17009KT P6SM OVC010
     FM241700 17009KT P6SM VCTS BKN025CB=



000
FTUS44 KSHV 231749
TAFMLU
TAF
KMLU 231749Z 2318/2418 05008KT P6SM OVC008
     FM232100 05008KT P6SM BKN030 OVC100
     FM240200 06006KT P6SM SCT060 BKN150
     FM240900 08008KT 4SM BR OVC007
     FM241500 14006KT P6SM BKN015=



000
FTUS44 KSHV 231749
TAFLFK
TAF
KLFK 231749Z 2318/2418 17005KT P6SM FEW010 OVC020
     FM240100 10005KT P6SM BKN035 BKN150
     FM240600 14004KT 4SM BR OVC007
     FM241600 15007KT P6SM OVC015
     FM241700 16007KT P6SM VCTS BKN025CB=



000
FTUS44 KSHV 231749
TAFGGG
TAF
KGGG 231749Z 2318/2418 08009KT P6SM OVC035
     FM240100 08006KT P6SM SCT035 BKN150
     FM240900 12006KT 4SM BR OVC007
     FM241400 15008KT P6SM OVC010
     FM241700 15008KT P6SM VCTS BKN025CB=



000
FTUS44 KSHV 231409 AAA
TAFELD
TAF AMD
KELD 231409Z 2314/2412 04008KT P6SM VCSH OVC004
      TEMPO 2314/2318 5SM -RA BR
     FM231800 05008KT P6SM BKN025
     FM240000 07008KT P6SM BKN035
     FM240600 10005KT P6SM OVC015=



000
FTUS44 KSHV 231409 AAA
TAFELD
TAF AMD
KELD 231409Z 2314/2412 04008KT P6SM VCSH OVC004
      TEMPO 2314/2318 5SM -RA BR
     FM231800 05008KT P6SM BKN025
     FM240000 07008KT P6SM BKN035
     FM240600 10005KT P6SM OVC015=



000
FTUS44 KSHV 231408 AAB
TAFGGG
TAF AMD
KGGG 231408Z 2314/2412 09006KT P6SM VCSH SCT035 OVC060
     FM231800 10007KT P6SM VCTS BKN040CB
     FM240000 11008KT P6SM SCT035 BKN150
     FM240600 15004KT 4SM BR OVC007=



000
FTUS44 KSHV 231408 AAB
TAFGGG
TAF AMD
KGGG 231408Z 2314/2412 09006KT P6SM VCSH SCT035 OVC060
     FM231800 10007KT P6SM VCTS BKN040CB
     FM240000 11008KT P6SM SCT035 BKN150
     FM240600 15004KT 4SM BR OVC007=



000
FTUS44 KSHV 231406 AAB
TAFSHV
TAF AMD
KSHV 231406Z 2314/2412 02006KT P6SM SCT045 OVC090
     FM231800 09008KT P6SM VCTS SCT040CB BKN150
     FM240000 10006KT P6SM SCT150
     FM240900 14008KT 4SM BR OVC007=



000
FTUS44 KSHV 231247 AAA
TAFGGG
TAF AMD
KGGG 231247Z 2313/2412 07006KT P6SM SCT100
      TEMPO 2313/2315 3SM -SHRA BR OVC004
     FM231500 12007KT P6SM BKN025
     FM231800 10007KT P6SM VCTS BKN040CB
     FM240000 11008KT P6SM SCT035 BKN150
     FM240600 15004KT 4SM BR OVC007=



000
FTUS44 KSHV 231247 AAA
TAFGGG
TAF AMD
KGGG 231247Z 2313/2412 07006KT P6SM SCT100
      TEMPO 2313/2315 3SM -SHRA BR OVC004
     FM231500 12007KT P6SM BKN025
     FM231800 10007KT P6SM VCTS BKN040CB
     FM240000 11008KT P6SM SCT035 BKN150
     FM240600 15004KT 4SM BR OVC007=



000
FTUS44 KSHV 231149
TAFTYR
TAF
KTYR 231149Z 2312/2412 15003KT P6SM VCTS SCT060CB BKN090
      TEMPO 2312/2314 3SM -TSRA OVC030CB
     FM231400 12007KT P6SM BKN025
     FM240000 10007KT P6SM SCT035 BKN150
     FM240900 17009KT 4SM BR OVC007=



000
FTUS44 KSHV 231149
TAFTYR
TAF
KTYR 231149Z 2312/2412 15003KT P6SM VCTS SCT060CB BKN090
      TEMPO 2312/2314 3SM -TSRA OVC030CB
     FM231400 12007KT P6SM BKN025
     FM240000 10007KT P6SM SCT035 BKN150
     FM240900 17009KT 4SM BR OVC007=



000
FTUS44 KSHV 231149
TAFLFK
TAF
KLFK 231149Z 2312/2412 18003KT 4SM BR OVC003
      TEMPO 2312/2314 1SM BR OVC015
     FM231400 15005KT P6SM BKN025
     FM231800 15005KT P6SM VCTS BKN040CB
     FM240000 10005KT P6SM BKN035 BKN150
     FM240600 14004KT 4SM BR OVC007=



000
FTUS44 KSHV 231149
TAFSHV
TAF
KSHV 231149Z 2312/2412 09007KT P6SM VCSH BKN020 BKN070
      TEMPO 2312/2314 2SM -SHRA BR BKN020
     FM231400 07008KT P6SM BKN025 BKN150
     FM231800 09008KT P6SM VCTS SCT040CB BKN150
     FM240000 10006KT P6SM SCT150
     FM240900 14008KT 4SM BR OVC007=



000
FTUS44 KSHV 231149
TAFGGG
TAF
KGGG 231149Z 2312/2412 07006KT P6SM SCT100
      TEMPO 2312/2315 3SM -TSRA BR OVC040CB
     FM231500 12007KT P6SM BKN025
     FM231800 10007KT P6SM VCTS BKN040CB
     FM240000 11008KT P6SM SCT035 BKN150
     FM240600 15004KT 4SM BR OVC007=



000
FTUS44 KSHV 231149
TAFTXK
TAF
KTXK 231149Z 2312/2412 08004KT P6SM VCTS BKN006 BKN015 OVC030CB
      TEMPO 2312/2315 1SM TSRA BKN006CB
     FM231500 07010KT P6SM BKN025
     FM240100 08008KT P6SM BKN035
     FM240900 11006KT P6SM OVC015=



000
FTUS44 KSHV 231149
TAFMLU
TAF
KMLU 231149Z 2312/2412 02009KT P6SM VCSH OVC008
     FM231400 05008KT P6SM BKN025
     FM231800 05008KT P6SM VCTS BKN035CB
     FM240000 05006KT P6SM SCT150
     FM240900 08008KT 4SM BR OVC007=



000
FTUS44 KSHV 231149
TAFELD
TAF
KELD 231149Z 2312/2412 01004KT 6SM -RA BR BKN003 OVC110
      TEMPO 2312/2314 BKN004
     FM231400 05008KT P6SM VCSH BKN015
     FM231800 05008KT P6SM BKN025
     FM240000 07008KT P6SM BKN035
     FM240600 10005KT P6SM OVC015=



000
FTUS44 KSHV 231149
TAFGGG
TAF
KGGG 231149Z 2312/2412 07006KT P6SM SCT100
      TEMPO 2312/2315 3SM -TSRA BR OVC040CB
     FM231500 12007KT P6SM BKN025
     FM231800 10007KT P6SM VCTS BKN040CB
     FM240000 11008KT P6SM SCT035 BKN150
     FM240600 15004KT 4SM BR OVC007=



000
FTUS44 KSHV 231149
TAFSHV
TAF
KSHV 231149Z 2312/2412 09007KT P6SM VCSH BKN020 BKN070
      TEMPO 2312/2314 2SM -SHRA BR BKN020
     FM231400 07008KT P6SM BKN025 BKN150
     FM231800 09008KT P6SM VCTS SCT040CB BKN150
     FM240000 10006KT P6SM SCT150
     FM240900 14008KT 4SM BR OVC007=



000
FTUS44 KSHV 231149
TAFELD
TAF
KELD 231149Z 2312/2412 01004KT 6SM -RA BR BKN003 OVC110
      TEMPO 2312/2314 BKN004
     FM231400 05008KT P6SM VCSH BKN015
     FM231800 05008KT P6SM BKN025
     FM240000 07008KT P6SM BKN035
     FM240600 10005KT P6SM OVC015=



000
FTUS44 KSHV 231149
TAFLFK
TAF
KLFK 231149Z 2312/2412 18003KT 4SM BR OVC003
      TEMPO 2312/2314 1SM BR OVC015
     FM231400 15005KT P6SM BKN025
     FM231800 15005KT P6SM VCTS BKN040CB
     FM240000 10005KT P6SM BKN035 BKN150
     FM240600 14004KT 4SM BR OVC007=



000
FTUS44 KSHV 231149
TAFMLU
TAF
KMLU 231149Z 2312/2412 02009KT P6SM VCSH OVC008
     FM231400 05008KT P6SM BKN025
     FM231800 05008KT P6SM VCTS BKN035CB
     FM240000 05006KT P6SM SCT150
     FM240900 08008KT 4SM BR OVC007=



000
FTUS44 KSHV 231149
TAFTXK
TAF
KTXK 231149Z 2312/2412 08004KT P6SM VCTS BKN006 BKN015 OVC030CB
      TEMPO 2312/2315 1SM TSRA BKN006CB
     FM231500 07010KT P6SM BKN025
     FM240100 08008KT P6SM BKN035
     FM240900 11006KT P6SM OVC015=



000
FTUS44 KSHV 231059 AAC
TAFELD
TAF AMD
KELD 231059Z 2311/2406 00000KT 5SM -RA BR SCT004 OVC090
      TEMPO 2311/2314 BKN004
     FM231400 05008KT P6SM VCTS BKN025CB
     FM231800 05008KT P6SM BKN035
     FM240100 07008KT P6SM BKN025=



000
FTUS44 KSHV 231004 AAB
TAFMLU
TAF AMD
KMLU 231004Z 2310/2406 06004KT P6SM VCSH SCT070 BKN090 BKN110
      TEMPO 2310/2311 2SM -TSRA BR BKN030CB
     FM231400 05008KT P6SM BKN035
     FM232000 05008KT P6SM BKN035=



000
FTUS44 KSHV 231001 AAB
TAFELD
TAF AMD
KELD 231001Z 2310/2406 00000KT 5SM -TSRA BR BKN004CB OVC090
     FM231200 05008KT P6SM VCTS BKN025CB
     FM231800 05008KT P6SM BKN035
     FM240100 07008KT P6SM BKN025=



000
FTUS44 KSHV 230932 AAA
TAFMLU
TAF AMD
KMLU 230932Z 2310/2406 04005KT P6SM VCSH SCT040
      TEMPO 2310/2314 2SM -TSRA BR BKN030CB
     FM231400 05008KT P6SM VCTS BKN035CB
     FM232000 05008KT P6SM BKN035=



000
FTUS44 KSHV 230932 AAA
TAFMLU
TAF AMD
KMLU 230932Z 2310/2406 04005KT P6SM VCSH SCT040
      TEMPO 2310/2314 2SM -TSRA BR BKN030CB
     FM231400 05008KT P6SM VCTS BKN035CB
     FM232000 05008KT P6SM BKN035=



000
FTUS44 KSHV 230930 AAC
TAFSHV
TAF AMD
KSHV 230930Z 2310/2406 19004KT P6SM VCSH SCT070 SCT100 OVC280
      TEMPO 2311/2314 2SM -TSRA BR BKN040CB
     FM231400 07008KT P6SM -TSRA BKN035CB BKN150
     FM231800 09008KT P6SM SCT040 BKN150=



000
FTUS44 KSHV 230844 AAB
TAFSHV
TAF AMD
KSHV 230844Z 2309/2406 19004KT P6SM VCSH SCT070 SCT100 OVC280
      TEMPO 2309/2311 2SM -TSRA BR BKN040CB
     FM231100 14004KT P6SM VCTS BKN030CB
     FM231800 07008KT P6SM VCTS BKN035CB BKN150
     FM240100 09008KT P6SM SCT040 BKN150=



000
FTUS44 KSHV 230831 AAA
TAFLFK
TAF AMD
KLFK 230831Z 2309/2406 00000KT 5SM BR BKN010 OVC100
      TEMPO 2310/2314 1SM BR OVC005
     FM231400 15005KT P6SM VCTS BKN025CB
      TEMPO 2314/2318 3SM -TSRA BR BKN025CB
     FM231800 15005KT P6SM VCTS BKN040CB
     FM240100 10005KT P6SM BKN035 BKN150=



000
FTUS44 KSHV 230714 AAA
TAFELD
TAF AMD
KELD 230714Z 2307/2406 06006KT P6SM VCSH BKN070 BKN090
      TEMPO 2308/2310 3SM -TSRA BKN015CB
     FM231000 08005KT P6SM VCSH BKN060
     FM231200 05008KT P6SM VCTS BKN025CB
     FM231800 05008KT P6SM VCTS BKN035CB
     FM240100 07008KT P6SM BKN025=



000
FTUS44 KSHV 230705 AAA
TAFTYR
TAF AMD
KTYR 230705Z 2307/2406 12007KT P6SM SHRA SCT035 BKN060
      TEMPO 2307/2309 3SM -TSRA OVC030CB
     FM230900 12007KT P6SM VCTS BKN030CB
      TEMPO 2310/2314 3SM -TSRA OVC030CB
     FM231400 12007KT P6SM VCTS BKN035CB
     FM240100 10007KT P6SM SCT035 BKN150=



000
FTUS44 KSHV 230626 AAA
TAFTXK
TAF AMD
KTXK 230626Z 2306/2406 05006KT P6SM VCTS SCT060CB
      TEMPO 2306/2310 2SM TSRA BKN015CB
     FM231000 06011KT P6SM VCTS BKN040CB
      TEMPO 2310/2314 1SM +TSRA BKN015CB
     FM231400 07010KT P6SM VCTS BKN025CB
     FM240100 08008KT P6SM BKN025=



000
FTUS44 KSHV 230525
TAFTYR
TAF
KTYR 230525Z 2306/2406 12007KT P6SM VCSH SCT035 BKN060
      TEMPO 2306/2310 3SM -SHRA OVC030
     FM231000 12007KT P6SM VCTS BKN030CB
      TEMPO 2310/2314 3SM -TSRA OVC030CB
     FM231400 12007KT P6SM VCTS BKN035CB
     FM240100 10007KT P6SM SCT035 BKN150=



000
FTUS44 KSHV 230525
TAFTXK
TAF
KTXK 230525Z 2306/2406 05006KT P6SM VCSH OVC060
      TEMPO 2306/2310 5SM -SHRA OVC040
     FM231000 06011KT P6SM VCTS BKN040CB
      TEMPO 2310/2314 3SM -TSRA BKN015CB
     FM231400 07010KT P6SM VCTS BKN025CB
     FM240100 08008KT P6SM BKN025=



000
FTUS44 KSHV 230525
TAFGGG
TAF
KGGG 230525Z 2306/2406 12006KT P6SM VCSH SCT035 BKN060
      TEMPO 2307/2311 4SM -SHRA BR BKN030
     FM231100 11005KT P6SM VCTS BKN040CB
      TEMPO 2311/2315 3SM -TSRA BR OVC040CB
     FM231500 10007KT P6SM VCTS BKN040CB
     FM240100 11008KT P6SM SCT035 BKN150=



000
FTUS44 KSHV 230525
TAFMLU
TAF
KMLU 230525Z 2306/2406 VRB03KT P6SM BKN120
     FM230900 VRB03KT 3SM BR BKN015
     FM231600 05008KT P6SM VCTS BKN035CB
     FM240200 05008KT P6SM BKN035=



000
FTUS44 KSHV 230525
TAFSHV
TAF
KSHV 230525Z 2306/2406 14004KT P6SM BKN050
     FM231100 14004KT P6SM VCTS BKN030CB
     FM231800 07008KT P6SM VCTS BKN035CB BKN150
     FM240100 09008KT P6SM SCT040 BKN150=



000
FTUS44 KSHV 230525
TAFLFK
TAF
KLFK 230525Z 2306/2406 VRB04KT P6SM VCTS BKN060CB
      TEMPO 2306/2308 3SM -TSRA BR BKN035CB
     FM230900 12006KT 5SM BR BKN009
      TEMPO 2310/2314 1SM BR OVC005
     FM231400 15005KT P6SM VCTS BKN025CB
      TEMPO 2314/2318 3SM -TSRA BR BKN025CB
     FM231800 15005KT P6SM VCTS BKN040CB
     FM240100 10005KT P6SM BKN035 BKN150=



000
FTUS44 KSHV 230525
TAFELD
TAF
KELD 230525Z 2306/2406 VRB04KT P6SM BKN070
     FM230900 08005KT P6SM VCSH BKN060
     FM231200 05008KT P6SM VCTS BKN025CB
     FM231800 05008KT P6SM VCTS BKN035CB
     FM240100 07008KT P6SM BKN025=



000
FTUS44 KSHV 230525
TAFELD
TAF
KELD 230525Z 2306/2406 VRB04KT P6SM BKN070
     FM230900 08005KT P6SM VCSH BKN060
     FM231200 05008KT P6SM VCTS BKN025CB
     FM231800 05008KT P6SM VCTS BKN035CB
     FM240100 07008KT P6SM BKN025=



000
FTUS44 KSHV 230357 AAA
TAFLFK
TAF AMD
KLFK 230357Z 2304/2324 12004KT P6SM VCTS BKN080CB
      TEMPO 2304/2307 3SM -TSRA BR BKN035CB
     FM230900 12006KT 5SM BR BKN009
      TEMPO 2310/2314 1SM BR OVC005
     FM231500 15005KT P6SM BKN025
     FM232000 15005KT P6SM VCTS BKN040CB=



000
FTUS44 KSHV 230357 AAA
TAFLFK
TAF AMD
KLFK 230357Z 2304/2324 12004KT P6SM VCTS BKN080CB
      TEMPO 2304/2307 3SM -TSRA BR BKN035CB
     FM230900 12006KT 5SM BR BKN009
      TEMPO 2310/2314 1SM BR OVC005
     FM231500 15005KT P6SM BKN025
     FM232000 15005KT P6SM VCTS BKN040CB=



000
FTUS44 KSHV 222349
TAFELD
TAF
KELD 222349Z 2300/2324 08005KT P6SM BKN060
     FM230900 08005KT 5SM BR OVC009
     FM231600 05008KT P6SM VCTS BKN020CB=



000
FTUS44 KSHV 222349
TAFTXK
TAF
KTXK 222349Z 2300/2324 08006KT P6SM BKN060
     FM230900 09005KT P6SM VCTS BKN040CB
      TEMPO 2310/2314 3SM -TSRA BKN015CB
     FM231400 07010KT P6SM VCTS BKN025CB=



000
FTUS44 KSHV 222349
TAFGGG
TAF
KGGG 222349Z 2300/2324 05007KT P6SM BKN050
     FM230800 09005KT P6SM VCTS BKN050CB
      TEMPO 2310/2314 3SM BR BKN009
     FM231400 10007KT P6SM VCTS BKN030CB
     FM231800 11007KT P6SM VCTS BKN050CB=



000
FTUS44 KSHV 222349
TAFLFK
TAF
KLFK 222349Z 2300/2324 15006KT P6SM SCT040 BKN250
     FM230900 12006KT 5SM BR BKN009
      TEMPO 2310/2314 1SM BR OVC005
     FM231500 15005KT P6SM BKN025
     FM232000 15005KT P6SM VCTS BKN040CB=



000
FTUS44 KSHV 222349
TAFTYR
TAF
KTYR 222349Z 2300/2324 05007KT P6SM BKN060 BKN250
     FM230700 09005KT P6SM VCTS BKN050CB
      TEMPO 2309/2313 3SM BR BKN009
     FM231300 12007KT P6SM VCTS BKN030CB
     FM231700 12007KT P6SM VCTS BKN050CB=



000
FTUS44 KSHV 222349
TAFSHV
TAF
KSHV 222349Z 2300/2324 03010KT P6SM SCT050 BKN070
     FM230300 09005KT P6SM BKN050
     FM230900 10005KT P6SM VCTS BKN025CB
     FM231800 07006KT P6SM VCTS BKN035CB BKN150=



000
FTUS44 KSHV 222349
TAFMLU
TAF
KMLU 222349Z 2300/2324 02011KT P6SM BKN100
     FM230200 09004KT P6SM BKN050
     FM230900 09004KT 3SM BR BKN015
     FM231700 05007KT P6SM VCTS BKN035CB=



    US Dept of Commerce
    National Oceanic and Atmospheric Administration
    National Weather Service
    1325 East West Highway
    Silver Spring, MD 20910
    Page Author: NWS Internet Services Team
Disclaimer
Information Quality
Credits
Glossary
Privacy Policy
Freedom of Information Act (FOIA)
About Us
Career Opportunities